Time;durP1;ratioP1;P1;durP2;ratioP2;P2;SDS_P1;SDS_P2;PMS_P1;PMS_P2;Temp;Humidity;BMP_temperature;BMP_pressure;BME280_temperature;BME280_humidity;BME280_pressure;Samples;Min_cycle;Max_cycle;Signal;HPM_P1;HPM_P2
2021/10/04 00:16:21;;;;;;;3.92;1.10;;;10.80;99.90;;;;;;5108029;28;20085;-57
2021/10/04 00:18:47;;;;;;;1.08;0.80;;;10.80;99.90;;;;;;5095854;28;20353;-58
2021/10/04 00:21:13;;;;;;;2.17;0.80;;;10.80;99.90;;;;;;5101793;28;20031;-58
2021/10/04 00:23:38;;;;;;;2.70;0.85;;;10.80;99.90;;;;;;5102288;28;20035;-58
2021/10/04 00:26:04;;;;;;;2.83;0.77;;;10.80;99.90;;;;;;5109502;28;20525;-58
2021/10/04 00:28:30;;;;;;;1.58;0.88;;;10.80;99.90;;;;;;5103154;28;20031;-56
2021/10/04 00:30:55;;;;;;;1.67;1.00;;;10.80;99.90;;;;;;5109714;28;20133;-58
2021/10/04 00:33:21;;;;;;;1.40;0.77;;;10.80;99.90;;;;;;5112136;28;20047;-55
2021/10/04 00:35:47;;;;;;;3.45;1.08;;;10.80;99.90;;;;;;5108819;28;20092;-56
2021/10/04 00:38:12;;;;;;;2.13;1.10;;;10.70;99.90;;;;;;5108625;28;20066;-55
2021/10/04 00:40:38;;;;;;;2.78;0.93;;;10.80;99.90;;;;;;5110826;28;20059;-55
2021/10/04 00:43:05;;;;;;;3.75;0.98;;;10.80;99.90;;;;;;5103995;28;20145;-57
2021/10/04 00:45:32;;;;;;;2.53;0.77;;;10.70;99.90;;;;;;5109827;28;20107;-57
2021/10/04 00:47:58;;;;;;;1.67;0.90;;;10.70;99.90;;;;;;5110050;28;20072;-53
2021/10/04 00:50:25;;;;;;;1.42;0.70;;;10.70;99.90;;;;;;5105203;27;20027;-56
2021/10/04 00:52:51;;;;;;;1.35;1.02;;;10.70;99.90;;;;;;5110768;28;20058;-53
2021/10/04 00:55:17;;;;;;;2.17;0.88;;;10.60;99.90;;;;;;5109951;28;20131;-54
2021/10/04 00:57:43;;;;;;;6.30;1.33;;;10.60;99.90;;;;;;5104521;28;20035;-56
2021/10/04 01:00:12;;;;;;;4.72;1.13;;;10.50;99.90;;;;;;5108867;28;20019;-57
2021/10/04 01:02:39;;;;;;;4.63;1.10;;;10.50;99.90;;;;;;5108594;28;20024;-57
2021/10/04 01:05:06;;;;;;;4.10;1.02;;;10.50;99.90;;;;;;5106540;28;20412;-56
2021/10/04 01:07:31;;;;;;;3.70;1.10;;;10.40;99.90;;;;;;5109086;28;20089;-54
2021/10/04 01:09:57;;;;;;;1.52;1.10;;;10.40;99.90;;;;;;5107024;28;20408;-56
2021/10/04 01:12:23;;;;;;;2.13;1.15;;;10.30;99.90;;;;;;5106480;28;20038;-58
2021/10/04 01:14:49;;;;;;;1.88;1.02;;;10.20;99.90;;;;;;5083201;28;20508;-56
2021/10/04 01:17:14;;;;;;;2.72;0.90;;;10.20;99.90;;;;;;5108386;28;20034;-56
2021/10/04 01:19:41;;;;;;;1.95;1.50;;;10.20;99.90;;;;;;5102382;28;20415;-59
2021/10/04 01:22:08;;;;;;;6.60;1.10;;;10.10;99.90;;;;;;5108093;28;20043;-58
2021/10/04 01:24:33;;;;;;;1.35;0.95;;;10.10;99.90;;;;;;5102634;28;20143;-58
2021/10/04 01:26:59;;;;;;;1.92;1.00;;;10.10;99.90;;;;;;5097621;28;20459;-58
2021/10/04 01:29:24;;;;;;;2.88;1.10;;;10.00;99.90;;;;;;5103638;28;20024;-55
2021/10/04 01:31:50;;;;;;;3.50;1.50;;;10.00;99.90;;;;;;5107238;28;20404;-57
2021/10/04 01:34:16;;;;;;;5.32;1.20;;;10.00;99.90;;;;;;5106631;28;20055;-58
2021/10/04 01:36:42;;;;;;;2.28;0.95;;;9.90;99.90;;;;;;5107483;28;20020;-57
2021/10/04 01:39:07;;;;;;;3.95;1.13;;;9.90;99.90;;;;;;5103311;28;20027;-55
2021/10/04 01:41:33;;;;;;;2.97;1.08;;;9.90;99.90;;;;;;5111289;28;20028;-56
2021/10/04 01:43:59;;;;;;;2.50;1.13;;;9.90;99.90;;;;;;5103631;28;21715;-57
2021/10/04 01:46:24;;;;;;;9.13;1.00;;;9.90;99.90;;;;;;5110767;28;20158;-57
2021/10/04 01:48:50;;;;;;;8.40;1.50;;;9.90;99.90;;;;;;5099054;28;20022;-57
2021/10/04 01:51:16;;;;;;;4.60;1.23;;;9.90;99.90;;;;;;5110605;28;20028;-55
2021/10/04 01:53:43;;;;;;;3.53;1.00;;;9.80;99.90;;;;;;5106121;28;20035;-57
2021/10/04 01:56:08;;;;;;;4.57;1.00;;;9.80;99.90;;;;;;5108206;28;20412;-56
2021/10/04 01:58:34;;;;;;;3.58;1.10;;;9.80;99.90;;;;;;5098396;28;20035;-52
2021/10/04 02:01:01;;;;;;;2.97;1.33;;;9.80;99.90;;;;;;5105050;28;20039;-58
2021/10/04 02:03:27;;;;;;;5.50;1.40;;;9.80;99.90;;;;;;5109098;28;20039;-55
2021/10/04 02:05:53;;;;;;;2.25;1.00;;;9.80;99.90;;;;;;5109657;28;20024;-57
2021/10/04 02:08:19;;;;;;;2.78;0.82;;;9.80;99.90;;;;;;5110604;28;20027;-57
2021/10/04 02:10:45;;;;;;;5.80;1.30;;;9.70;99.90;;;;;;5108880;28;20365;-54
2021/10/04 02:13:11;;;;;;;2.63;1.10;;;9.80;99.90;;;;;;5108419;28;20042;-57
2021/10/04 02:15:38;;;;;;;4.55;1.10;;;9.70;99.90;;;;;;5090724;28;20168;-57
2021/10/04 02:18:05;;;;;;;4.10;1.23;;;9.70;99.90;;;;;;5093972;28;20031;-58
2021/10/04 02:20:39;;;;;;;3.45;1.25;;;9.70;99.90;;;;;;5105699;28;20031;-59
2021/10/04 02:23:06;;;;;;;;;;;9.70;99.90;;;;;;5108971;28;20385;-58
2021/10/04 02:25:37;;;;;;;4.53;1.00;;;9.70;99.90;;;;;;5110693;28;20296;-58
2021/10/04 02:28:04;;;;;;;2.13;1.05;;;9.60;99.90;;;;;;5108626;28;20438;-56
2021/10/04 02:30:30;;;;;;;1.42;1.23;;;9.60;99.90;;;;;;5110453;28;20032;-58
2021/10/04 02:32:55;;;;;;;1.63;1.23;;;9.60;99.90;;;;;;5109692;28;20088;-57
2021/10/04 02:35:22;;;;;;;5.53;1.55;;;9.60;99.90;;;;;;5110240;28;20481;-57
2021/10/04 02:37:49;;;;;;;2.45;1.30;;;9.60;99.90;;;;;;5109404;28;20027;-57
2021/10/04 02:40:15;;;;;;;7.20;0.93;;;9.50;99.90;;;;;;5103633;28;20024;-56
2021/10/04 02:42:41;;;;;;;4.22;1.60;;;9.50;99.90;;;;;;5099349;28;20386;-56
2021/10/04 02:45:08;;;;;;;6.60;1.00;;;9.50;99.90;;;;;;5105796;28;20024;-55
2021/10/04 02:47:34;;;;;;;2.70;1.42;;;9.50;99.90;;;;;;5105604;28;20032;-56
2021/10/04 02:50:00;;;;;;;2.03;0.93;;;9.50;99.90;;;;;;5103997;28;20019;-56
2021/10/04 02:52:25;;;;;;;3.53;1.05;;;9.50;99.90;;;;;;5108524;28;20034;-57
2021/10/04 02:54:51;;;;;;;6.45;1.20;;;9.50;99.90;;;;;;5101222;28;20419;-55
2021/10/04 02:57:17;;;;;;;1.58;1.08;;;9.60;99.90;;;;;;5107220;28;20028;-58
2021/10/04 02:59:42;;;;;;;3.50;1.27;;;9.60;99.90;;;;;;5109962;28;20070;-58
2021/10/04 03:02:08;;;;;;;4.28;0.95;;;9.60;99.90;;;;;;5104814;28;20031;-54
2021/10/04 03:04:33;;;;;;;2.75;1.30;;;9.70;99.90;;;;;;5108942;28;20103;-56
2021/10/04 03:06:59;;;;;;;1.25;1.15;;;9.70;99.90;;;;;;5094969;28;20111;-59
2021/10/04 03:09:25;;;;;;;3.60;1.20;;;9.70;99.90;;;;;;5107925;28;20020;-57
2021/10/04 03:11:50;;;;;;;3.35;0.90;;;9.60;99.90;;;;;;5098944;28;20016;-57
2021/10/04 03:14:16;;;;;;;3.97;1.20;;;9.60;99.90;;;;;;5086938;28;20036;-54
2021/10/04 03:16:41;;;;;;;2.80;1.38;;;9.60;99.90;;;;;;5101884;28;20128;-57
2021/10/04 03:19:07;;;;;;;2.70;1.30;;;9.70;99.90;;;;;;5099629;28;20397;-56
2021/10/04 03:21:33;;;;;;;1.05;0.90;;;9.70;99.90;;;;;;5110246;28;20402;-57
2021/10/04 03:23:58;;;;;;;1.63;0.70;;;9.80;99.90;;;;;;5100242;28;20405;-58
2021/10/04 03:26:24;;;;;;;5.75;0.98;;;9.80;99.90;;;;;;5105930;28;20031;-57
2021/10/04 03:28:50;;;;;;;2.05;0.80;;;9.80;99.90;;;;;;5109309;28;20107;-58
2021/10/04 03:31:15;;;;;;;2.47;1.00;;;9.90;99.90;;;;;;5105883;28;20052;-55
2021/10/04 03:33:41;;;;;;;1.88;0.93;;;9.90;99.90;;;;;;5102646;28;20389;-58
2021/10/04 03:36:06;;;;;;;1.65;1.15;;;9.90;99.90;;;;;;5107683;28;20102;-58
2021/10/04 03:38:32;;;;;;;4.47;1.05;;;9.90;99.90;;;;;;5105406;28;20042;-58
2021/10/04 03:40:58;;;;;;;1.77;0.77;;;9.90;99.90;;;;;;5108361;28;20563;-57
2021/10/04 03:43:24;;;;;;;6.78;1.00;;;9.90;99.90;;;;;;5106024;28;20020;-57
2021/10/04 03:45:50;;;;;;;2.60;0.90;;;10.00;99.90;;;;;;5098347;28;20103;-55
2021/10/04 03:48:16;;;;;;;5.05;1.17;;;10.00;99.90;;;;;;5102539;28;20035;-56
2021/10/04 03:50:41;;;;;;;3.92;1.02;;;10.00;99.90;;;;;;5109620;28;20039;-58
2021/10/04 03:53:07;;;;;;;6.55;1.05;;;10.00;99.90;;;;;;5107285;28;20322;-57
2021/10/04 03:55:33;;;;;;;2.80;1.20;;;10.00;99.90;;;;;;5108410;28;20548;-56
2021/10/04 03:57:58;;;;;;;1.63;1.30;;;10.00;99.90;;;;;;5107652;28;20032;-58
2021/10/04 04:00:26;;;;;;;4.32;1.08;;;10.00;99.90;;;;;;5104945;28;20024;-57
2021/10/04 04:02:52;;;;;;;2.65;1.20;;;10.00;99.90;;;;;;5108015;28;20093;-56
2021/10/04 04:05:18;;;;;;;2.50;1.13;;;10.00;99.90;;;;;;5112858;28;20020;-50
2021/10/04 04:07:44;;;;;;;7.70;1.42;;;10.00;99.90;;;;;;5109078;28;20043;-56
2021/10/04 04:10:11;;;;;;;4.97;1.20;;;9.90;99.90;;;;;;5110196;28;20059;-56
2021/10/04 04:12:38;;;;;;;1.67;1.23;;;9.90;99.90;;;;;;5112236;28;20032;-56
2021/10/04 04:15:05;;;;;;;3.13;1.10;;;9.90;99.90;;;;;;5088664;28;20041;-56
2021/10/04 04:17:31;;;;;;;2.55;1.00;;;9.90;99.90;;;;;;5106612;28;20473;-58
2021/10/04 04:19:56;;;;;;;3.22;1.10;;;9.90;99.90;;;;;;5107235;28;20054;-55
2021/10/04 04:22:22;;;;;;;4.22;1.00;;;9.80;99.90;;;;;;5108797;28;20068;-58
2021/10/04 04:24:48;;;;;;;1.65;1.00;;;9.90;99.90;;;;;;5105922;28;20036;-58
2021/10/04 04:27:13;;;;;;;3.17;1.23;;;9.80;99.90;;;;;;5111765;28;20031;-56
2021/10/04 04:29:39;;;;;;;3.25;0.90;;;9.90;99.90;;;;;;5106502;28;20073;-57
2021/10/04 04:32:07;;;;;;;1.50;1.02;;;9.90;99.90;;;;;;5110499;28;20034;-59
2021/10/04 04:34:33;;;;;;;3.40;1.50;;;9.90;99.90;;;;;;5111956;28;20031;-58
2021/10/04 04:36:59;;;;;;;1.95;1.20;;;9.90;99.90;;;;;;5105963;28;20036;-58
2021/10/04 04:39:26;;;;;;;2.20;1.00;;;9.90;99.90;;;;;;5104486;28;20028;-59
2021/10/04 04:41:52;;;;;;;1.58;1.00;;;9.90;99.90;;;;;;5111036;28;20110;-58
2021/10/04 04:44:18;;;;;;;3.35;1.30;;;9.90;99.90;;;;;;5107705;28;20587;-58
2021/10/04 04:46:43;;;;;;;4.85;1.20;;;9.90;99.90;;;;;;5109659;28;20031;-56
2021/10/04 04:49:09;;;;;;;3.03;1.63;;;9.90;99.90;;;;;;5104231;28;20027;-59
2021/10/04 04:51:34;;;;;;;7.95;1.40;;;9.90;99.90;;;;;;5106439;28;20032;-58
2021/10/04 04:54:01;;;;;;;7.97;1.10;;;9.90;99.90;;;;;;5109688;28;20020;-58
2021/10/04 04:56:27;;;;;;;7.95;1.35;;;9.90;99.90;;;;;;5107556;28;20024;-57
2021/10/04 04:58:53;;;;;;;7.28;1.25;;;9.90;99.90;;;;;;5101545;28;20019;-56
2021/10/04 05:01:18;;;;;;;6.30;1.40;;;9.90;99.90;;;;;;5102497;28;20404;-50
2021/10/04 05:03:44;;;;;;;2.53;1.15;;;9.80;99.90;;;;;;5105687;28;20391;-59
2021/10/04 05:06:09;;;;;;;2.67;1.13;;;9.80;99.90;;;;;;5101534;28;20132;-57
2021/10/04 05:08:35;;;;;;;7.32;1.20;;;9.80;99.90;;;;;;5106861;28;20028;-59
2021/10/04 05:11:01;;;;;;;1.65;1.13;;;9.80;99.90;;;;;;5104998;28;20649;-57
2021/10/04 05:13:27;;;;;;;3.53;1.20;;;9.90;99.90;;;;;;5101468;28;20039;-58
2021/10/04 05:15:52;;;;;;;2.75;1.00;;;9.90;99.90;;;;;;5088912;28;20424;-57
2021/10/04 05:18:18;;;;;;;2.88;1.27;;;9.90;99.90;;;;;;5099797;28;20039;-59
2021/10/04 05:20:44;;;;;;;3.85;1.20;;;9.90;99.90;;;;;;5105090;28;20035;-57
2021/10/04 05:23:09;;;;;;;2.10;1.30;;;10.00;99.90;;;;;;5105304;28;20106;-56
2021/10/04 05:25:35;;;;;;;2.20;1.10;;;10.00;99.90;;;;;;5099545;28;20480;-55
2021/10/04 05:28:01;;;;;;;2.22;1.02;;;10.10;99.90;;;;;;5102853;28;20089;-56
2021/10/04 05:30:27;;;;;;;2.70;1.25;;;10.10;99.90;;;;;;5101194;28;20024;-54
2021/10/04 05:32:52;;;;;;;3.25;1.20;;;10.10;99.90;;;;;;5103203;28;20057;-56
2021/10/04 05:35:18;;;;;;;2.28;1.17;;;10.10;99.90;;;;;;5108915;28;20108;-51
2021/10/04 05:37:44;;;;;;;4.63;1.55;;;10.10;99.90;;;;;;5102527;28;20114;-57
2021/10/04 05:40:11;;;;;;;2.28;1.05;;;10.20;99.90;;;;;;5100558;28;20408;-56
2021/10/04 05:42:37;;;;;;;2.15;1.25;;;10.20;99.90;;;;;;5105016;28;20020;-57
2021/10/04 05:45:05;;;;;;;4.38;1.77;;;10.20;99.90;;;;;;5105020;28;20019;-56
2021/10/04 05:47:30;;;;;;;1.90;1.02;;;10.20;99.90;;;;;;5106514;28;20384;-55
2021/10/04 05:49:56;;;;;;;2.15;1.30;;;10.20;99.90;;;;;;5107346;28;20020;-58
2021/10/04 05:52:22;;;;;;;1.77;1.27;;;10.20;99.90;;;;;;5110997;28;20035;-59
2021/10/04 05:54:47;;;;;;;3.55;1.50;;;10.20;99.90;;;;;;5098921;28;20028;-58
2021/10/04 05:57:13;;;;;;;1.38;1.20;;;10.20;99.90;;;;;;5106799;28;20024;-58
2021/10/04 05:59:38;;;;;;;1.08;0.95;;;10.30;99.90;;;;;;5104100;28;20027;-60
2021/10/04 06:02:04;;;;;;;4.35;1.25;;;10.30;99.90;;;;;;5105441;28;20031;-58
2021/10/04 06:04:30;;;;;;;4.25;1.40;;;10.40;99.90;;;;;;5105464;28;20039;-59
2021/10/04 06:06:55;;;;;;;5.05;1.02;;;10.40;99.90;;;;;;5101584;28;20020;-56
2021/10/04 06:09:21;;;;;;;3.47;1.30;;;10.50;99.90;;;;;;5100606;28;20028;-56
2021/10/04 06:11:46;;;;;;;2.08;1.33;;;10.50;99.90;;;;;;5101117;28;20024;-58
2021/10/04 06:14:12;;;;;;;2.35;1.48;;;10.50;99.90;;;;;;5102248;28;20024;-57
2021/10/04 06:16:38;;;;;;;4.20;1.70;;;10.50;99.90;;;;;;5090305;28;20538;-58
2021/10/04 06:19:03;;;;;;;2.17;1.75;;;10.50;99.90;;;;;;5104449;28;20103;-57
2021/10/04 06:21:30;;;;;;;2.40;1.58;;;10.60;99.90;;;;;;5098993;28;20191;-59
2021/10/04 06:23:55;;;;;;;2.97;1.30;;;10.60;99.90;;;;;;5104716;28;20052;-59
2021/10/04 06:26:21;;;;;;;5.35;1.48;;;10.70;99.90;;;;;;5107491;28;20024;-58
2021/10/04 06:28:47;;;;;;;4.30;1.17;;;10.70;99.90;;;;;;5103172;28;20035;-53
2021/10/04 06:31:12;;;;;;;3.40;1.30;;;10.70;99.90;;;;;;5109356;28;20038;-54
2021/10/04 06:33:38;;;;;;;7.40;1.20;;;10.80;99.90;;;;;;5099942;28;20085;-56
2021/10/04 06:36:04;;;;;;;4.60;1.20;;;10.80;99.90;;;;;;5101325;28;20032;-56
2021/10/04 06:38:29;;;;;;;4.43;1.42;;;10.90;99.90;;;;;;5101128;28;20036;-54
2021/10/04 06:40:55;;;;;;;2.63;1.20;;;11.00;99.90;;;;;;5102551;28;20027;-55
2021/10/04 06:43:21;;;;;;;1.95;1.20;;;11.00;99.90;;;;;;5104438;28;20020;-54
2021/10/04 06:45:46;;;;;;;2.25;1.20;;;11.10;99.90;;;;;;5106254;28;20127;-56
2021/10/04 06:48:12;;;;;;;6.07;1.38;;;11.20;99.90;;;;;;5105877;28;20024;-57
2021/10/04 06:50:38;;;;;;;7.78;1.40;;;11.30;99.90;;;;;;5105188;28;20023;-56
2021/10/04 06:53:03;;;;;;;4.15;1.10;;;11.40;99.90;;;;;;5097119;28;20449;-57
2021/10/04 06:55:29;;;;;;;3.83;1.30;;;11.60;99.90;;;;;;5101416;28;20599;-56
2021/10/04 06:57:55;;;;;;;2.03;1.30;;;11.70;99.90;;;;;;5104029;28;20023;-58
2021/10/04 07:00:20;;;;;;;3.20;1.00;;;11.70;99.90;;;;;;5103643;28;20111;-58
2021/10/04 07:02:50;;;;;;;6.28;1.08;;;11.90;99.90;;;;;;5110174;28;20028;-58
2021/10/04 07:05:18;;;;;;;2.72;1.00;;;12.10;99.90;;;;;;5107881;28;20106;-54
2021/10/04 07:07:48;;;;;;;4.30;1.60;;;12.20;99.90;;;;;;5102497;28;20023;-56
2021/10/04 07:10:14;;;;;;;4.10;1.17;;;12.40;99.90;;;;;;5105564;28;20404;-55
2021/10/04 07:12:40;;;;;;;1.45;1.00;;;12.50;99.90;;;;;;5105385;28;20838;-56
2021/10/04 07:15:07;;;;;;;2.53;1.10;;;12.60;99.90;;;;;;5087341;28;20040;-57
2021/10/04 07:17:33;;;;;;;2.35;0.98;;;12.60;99.90;;;;;;5108137;28;20099;-55
2021/10/04 07:19:58;;;;;;;2.80;0.93;;;12.70;99.90;;;;;;5103205;28;20139;-57
2021/10/04 07:22:24;;;;;;;5.80;1.30;;;12.70;99.90;;;;;;5100782;28;20039;-56
2021/10/04 07:24:50;;;;;;;3.50;1.00;;;12.80;99.90;;;;;;5105939;28;20552;-52
2021/10/04 07:27:16;;;;;;;6.90;1.08;;;12.80;99.90;;;;;;5104068;28;20027;-56
2021/10/04 07:29:42;;;;;;;3.22;1.30;;;12.80;99.90;;;;;;5108286;28;20163;-56
2021/10/04 07:32:08;;;;;;;3.10;1.50;;;12.90;99.90;;;;;;5109221;28;20109;-54
2021/10/04 07:34:34;;;;;;;3.28;0.95;;;12.90;99.90;;;;;;5101505;28;20030;-57
2021/10/04 07:37:00;;;;;;;2.30;1.10;;;13.00;99.90;;;;;;5101870;28;20028;-57
2021/10/04 07:39:26;;;;;;;1.35;1.00;;;13.00;99.90;;;;;;5106080;28;20104;-52
2021/10/04 07:41:52;;;;;;;4.75;0.95;;;13.00;99.90;;;;;;5102153;28;20035;-56
2021/10/04 07:44:20;;;;;;;3.00;2.42;;;13.00;99.90;;;;;;5103558;28;20035;-56
2021/10/04 07:46:47;;;;;;;9.40;4.63;;;13.00;99.90;;;;;;5109332;28;20413;-57
2021/10/04 07:49:13;;;;;;;6.47;4.07;;;13.00;99.90;;;;;;5101965;28;20027;-57
2021/10/04 07:51:38;;;;;;;3.72;2.90;;;13.00;99.90;;;;;;5102634;28;20469;-57
2021/10/04 07:54:04;;;;;;;2.17;1.33;;;13.10;99.90;;;;;;5103850;28;20035;-53
2021/10/04 07:56:30;;;;;;;6.65;1.20;;;13.10;99.90;;;;;;5109030;28;20028;-57
2021/10/04 07:58:55;;;;;;;2.65;1.10;;;13.10;99.90;;;;;;5106894;28;20027;-56
2021/10/04 08:01:21;;;;;;;3.17;1.08;;;13.10;99.90;;;;;;5107164;28;20036;-50
2021/10/04 08:03:46;;;;;;;7.00;2.17;;;13.20;99.90;;;;;;5104672;28;20043;-57
2021/10/04 08:06:13;;;;;;;2.88;1.80;;;13.30;99.90;;;;;;5109234;28;20032;-54
2021/10/04 08:08:39;;;;;;;4.10;2.40;;;13.40;99.90;;;;;;5107115;28;20016;-59
2021/10/04 08:11:05;;;;;;;5.03;2.67;;;13.60;99.90;;;;;;5109378;28;20023;-56
2021/10/04 08:13:31;;;;;;;5.50;3.22;;;13.70;99.90;;;;;;5108730;28;20031;-57
2021/10/04 08:15:57;;;;;;;8.52;4.75;;;13.80;99.90;;;;;;5091314;28;20040;-56
2021/10/04 08:18:23;;;;;;;6.82;3.70;;;13.90;99.90;;;;;;5104971;28;20040;-56
2021/10/04 08:20:48;;;;;;;87.47;51.95;;;14.10;99.90;;;;;;5107974;28;20047;-56
2021/10/04 08:23:14;;;;;;;31.45;19.10;;;14.20;99.90;;;;;;5103358;28;20039;-56
2021/10/04 08:25:39;;;;;;;57.45;33.85;;;14.40;99.90;;;;;;5105953;28;20024;-57
2021/10/04 08:28:05;;;;;;;36.30;20.95;;;14.50;99.90;;;;;;5103918;28;20031;-56
2021/10/04 08:30:32;;;;;;;17.48;10.02;;;14.80;99.90;;;;;;5104534;28;20019;-55
2021/10/04 08:32:58;;;;;;;5.30;3.17;;;15.00;99.90;;;;;;5106905;28;20447;-58
2021/10/04 08:35:23;;;;;;;3.28;1.70;;;15.30;99.90;;;;;;5098873;28;20024;-58
2021/10/04 08:37:49;;;;;;;2.25;1.17;;;15.50;99.90;;;;;;5106009;28;20024;-56
2021/10/04 08:40:15;;;;;;;1.88;1.00;;;15.50;99.90;;;;;;5107652;28;20102;-57
2021/10/04 08:42:43;;;;;;;3.15;0.98;;;15.60;99.90;;;;;;5103068;28;20446;-56
2021/10/04 08:45:09;;;;;;;5.18;2.03;;;15.80;99.90;;;;;;5100272;28;20499;-56
2021/10/04 08:47:38;;;;;;;2.78;1.40;;;15.80;99.90;;;;;;5108976;28;20028;-56
2021/10/04 08:50:10;;;;;;;8.20;1.40;;;15.80;99.90;;;;;;5104813;28;20043;-58
2021/10/04 08:52:36;;;;;;;2.97;1.20;;;16.00;99.90;;;;;;5100395;28;20052;-57
2021/10/04 08:55:02;;;;;;;3.20;1.08;;;16.20;99.90;;;;;;5105330;28;20440;-58
2021/10/04 08:57:29;;;;;;;6.93;3.25;;;16.20;99.90;;;;;;5104285;28;20042;-58
2021/10/04 08:59:55;;;;;;;4.00;0.82;;;16.50;99.90;;;;;;5108250;28;20023;-58
2021/10/04 09:02:26;;;;;;;6.43;4.00;;;16.40;99.90;;;;;;5103558;28;20023;-58
2021/10/04 09:05:18;;;;;;;2.85;1.40;;;16.40;99.90;;;;;;5102349;28;20031;-57
2021/10/04 09:08:10;;;;;;;3.20;1.58;;;16.30;99.90;;;;;;5099562;28;20050;-57
2021/10/04 09:10:39;;;;;;;5.30;1.15;;;16.40;99.90;;;;;;5102429;28;20023;-58
2021/10/04 09:13:09;;;;;;;5.05;1.13;;;16.30;99.90;;;;;;5102745;28;20055;-57
2021/10/04 09:15:49;;;;;;;3.03;0.65;;;16.30;99.90;;;;;;5090442;28;20040;-57
2021/10/04 09:18:15;;;;;;;2.22;0.98;;;16.20;99.90;;;;;;5108346;28;20393;-57
2021/10/04 09:20:54;;;;;;;5.85;1.05;;;16.30;99.90;;;;;;5102644;28;20019;-56
2021/10/04 09:23:48;;;;;;;3.13;0.90;;;16.00;99.90;;;;;;5104338;28;20489;-56
2021/10/04 09:26:26;;;;;;;1.85;0.90;;;15.80;99.90;;;;;;5108841;28;20024;-57
2021/10/04 09:29:01;;;;;;;3.33;1.10;;;15.80;99.90;;;;;;5108260;28;20069;-58
2021/10/04 09:31:34;;;;;;;2.63;1.02;;;15.90;99.90;;;;;;5106039;28;20031;-57
2021/10/04 09:34:12;;;;;;;3.30;1.00;;;15.80;99.90;;;;;;5101199;28;20028;-58
2021/10/04 09:36:50;;;;;;;3.10;1.10;;;15.70;99.90;;;;;;5105660;28;20666;-56
2021/10/04 09:39:26;;;;;;;2.50;1.30;;;15.70;99.90;;;;;;5105795;28;20027;-56
2021/10/04 09:42:12;;;;;;;3.78;0.93;;;15.70;99.90;;;;;;5107002;28;20066;-57
2021/10/04 09:44:42;;;;;;;6.03;1.88;;;15.70;99.90;;;;;;5101636;28;20427;-57
2021/10/04 09:47:09;;;;;;;3.90;2.42;;;15.70;99.90;;;;;;5104711;28;20385;-55
2021/10/04 09:49:59;;;;;;;4.95;2.13;;;15.90;99.90;;;;;;5106765;28;20116;-57
2021/10/04 09:52:43;;;;;;;1.45;0.90;;;16.10;99.90;;;;;;5107755;28;20027;-57
2021/10/04 09:55:14;;;;;;;3.00;0.82;;;16.50;99.90;;;;;;5104073;28;20047;-56
2021/10/04 09:57:40;;;;;;;1.42;0.75;;;16.70;99.90;;;;;;5105696;28;20044;-58
2021/10/04 10:00:06;;;;;;;3.03;1.00;;;16.80;99.90;;;;;;5106071;28;20030;-57
2021/10/04 10:02:32;;;;;;;2.40;0.77;;;16.90;99.90;;;;;;5111040;28;20020;-57
2021/10/04 10:04:58;;;;;;;3.30;0.75;;;16.70;99.90;;;;;;5107191;28;20020;-58
2021/10/04 10:07:24;;;;;;;2.67;1.30;;;16.70;99.90;;;;;;5111090;28;20034;-55
2021/10/04 10:09:49;;;;;;;2.67;0.80;;;16.90;99.90;;;;;;5105683;28;20069;-57
2021/10/04 10:12:15;;;;;;;2.35;1.10;;;16.80;99.90;;;;;;5105099;28;20406;-56
2021/10/04 10:14:45;;;;;;;2.92;1.23;;;16.80;99.90;;;;;;5103789;28;20446;-56
2021/10/04 10:17:17;;;;;;;3.33;0.80;;;17.10;99.90;;;;;;5092757;28;20046;-57
2021/10/04 10:19:45;;;;;;;5.35;1.33;;;17.20;99.90;;;;;;5108072;28;20115;-56
2021/10/04 10:22:16;;;;;;;1.80;0.70;;;17.10;99.90;;;;;;5109772;28;20062;-58
2021/10/04 10:24:44;;;;;;;6.68;0.90;;;17.10;99.90;;;;;;5106271;28;20095;-55
2021/10/04 10:27:11;;;;;;;2.30;1.13;;;17.00;99.90;;;;;;5107871;28;20027;-56
2021/10/04 10:29:37;;;;;;;2.55;0.65;;;17.30;99.90;;;;;;5103523;28;20035;-56
2021/10/04 10:32:10;;;;;;;2.58;0.65;;;17.30;99.90;;;;;;5110628;28;20019;-57
2021/10/04 10:34:36;;;;;;;3.70;1.52;;;17.50;99.90;;;;;;5107341;28;20024;-58
2021/10/04 10:37:20;;;;;;;1.58;0.50;;;17.80;99.90;;;;;;5108620;28;20510;-58
2021/10/04 10:39:47;;;;;;;3.88;1.08;;;18.00;99.90;;;;;;5105912;28;20035;-58
2021/10/04 10:42:26;;;;;;;1.75;0.50;;;18.00;99.90;;;;;;5104454;28;20024;-57
2021/10/04 10:44:57;;;;;;;1.52;0.73;;;18.40;99.90;;;;;;5098647;28;20731;-56
2021/10/04 10:47:38;;;;;;;1.98;1.00;;;18.50;99.90;;;;;;5107339;28;20019;-50
2021/10/04 10:50:14;;;;;;;5.22;0.70;;;18.60;99.90;;;;;;5106403;28;20024;-57
2021/10/04 10:53:04;;;;;;;2.65;0.80;;;18.20;99.90;;;;;;5101394;28;20024;-57
2021/10/04 10:55:34;;;;;;;2.22;0.77;;;18.30;99.90;;;;;;5098679;28;20036;-57
2021/10/04 10:58:09;;;;;;;1.08;0.65;;;18.40;99.90;;;;;;5107033;28;20834;-58
2021/10/04 11:00:43;;;;;;;2.15;0.73;;;18.50;99.90;;;;;;5102605;28;20024;-56
2021/10/04 11:03:20;;;;;;;6.15;0.90;;;18.40;99.20;;;;;;5103807;28;20567;-58
2021/10/04 11:06:03;;;;;;;1.95;0.60;;;18.30;99.70;;;;;;5106897;28;20026;-55
2021/10/04 11:08:28;;;;;;;3.72;0.93;;;18.30;99.50;;;;;;5099380;28;20051;-56
2021/10/04 11:10:57;;;;;;;1.80;0.68;;;18.20;99.90;;;;;;5103933;28;20051;-57
2021/10/04 11:13:39;;;;;;;2.85;0.80;;;18.40;99.90;;;;;;5101855;28;20031;-54
2021/10/04 11:16:04;;;;;;;2.67;0.60;;;18.40;99.90;;;;;;5092181;28;20067;-57
2021/10/04 11:18:38;;;;;;;1.42;0.57;;;18.60;99.90;;;;;;5105218;28;20180;-55
2021/10/04 11:21:08;;;;;;;4.93;1.65;;;18.80;99.60;;;;;;5109172;28;20039;-57
2021/10/04 11:23:43;;;;;;;2.38;0.70;;;18.60;98.90;;;;;;5105779;28;20039;-55
2021/10/04 11:26:12;;;;;;;8.65;1.98;;;18.50;99.60;;;;;;5109000;28;20032;-59
2021/10/04 11:28:44;;;;;;;4.90;2.35;;;18.40;99.90;;;;;;5104926;27;20028;-55
2021/10/04 11:31:15;;;;;;;7.43;1.23;;;18.50;99.90;;;;;;5104304;28;20024;-57
2021/10/04 11:33:52;;;;;;;3.65;0.90;;;18.50;99.90;;;;;;5099401;28;20585;-55
2021/10/04 11:36:20;;;;;;;2.28;0.90;;;18.50;99.70;;;;;;5105375;28;20035;-55
2021/10/04 11:38:58;;;;;;;7.45;1.67;;;18.40;99.80;;;;;;5105030;28;20027;-55
2021/10/04 11:41:24;;;;;;;4.20;1.13;;;18.40;99.30;;;;;;5103098;28;20050;-54
2021/10/04 11:43:53;;;;;;;6.95;1.52;;;18.30;99.40;;;;;;5100030;28;20583;-55
2021/10/04 11:46:25;;;;;;;4.25;1.80;;;18.30;99.00;;;;;;5106639;28;20503;-57
2021/10/04 11:49:04;;;;;;;2.65;0.93;;;18.00;99.90;;;;;;5102248;28;20023;-55
2021/10/04 11:51:31;;;;;;;2.70;1.33;;;18.10;99.70;;;;;;5105754;28;20023;-55
2021/10/04 11:53:57;;;;;;;3.55;0.77;;;18.40;99.70;;;;;;5105236;28;20047;-56
2021/10/04 11:56:23;;;;;;;2.78;1.20;;;18.80;99.30;;;;;;5105647;28;20021;-56
2021/10/04 11:58:58;;;;;;;3.10;1.20;;;18.80;98.20;;;;;;5100564;28;20024;-56
2021/10/04 12:01:31;;;;;;;8.63;3.35;;;19.00;98.50;;;;;;5107897;28;20656;-55
2021/10/04 12:04:02;;;;;;;4.65;2.28;;;19.10;98.60;;;;;;5106492;28;20405;-58
2021/10/04 12:06:29;;;;;;;7.82;2.95;;;19.30;98.40;;;;;;5102341;28;20038;-58
2021/10/04 12:08:55;;;;;;;4.18;1.00;;;19.30;98.60;;;;;;5105842;28;20864;-58
2021/10/04 12:11:22;;;;;;;3.58;0.55;;;19.20;97.60;;;;;;5102429;28;20496;-53
2021/10/04 12:13:48;;;;;;;2.38;1.42;;;18.70;98.40;;;;;;5105520;28;20052;-57
2021/10/04 12:16:16;;;;;;;2.13;1.13;;;18.50;99.30;;;;;;5083117;28;20051;-55
2021/10/04 12:18:48;;;;;;;5.72;1.40;;;18.50;98.00;;;;;;5102833;28;20028;-57
2021/10/04 12:21:27;;;;;;;0.77;0.50;;;18.50;98.50;;;;;;5110653;28;20035;-55
2021/10/04 12:24:17;;;;;;;1.88;0.80;;;18.30;98.30;;;;;;5108036;28;20035;-58
2021/10/04 12:27:09;;;;;;;1.05;0.60;;;18.30;98.50;;;;;;5110692;28;20514;-58
2021/10/04 12:29:56;;;;;;;7.88;1.15;;;18.30;98.70;;;;;;5104169;28;20103;-57
2021/10/04 12:32:32;;;;;;;3.30;1.98;;;18.40;98.40;;;;;;5104370;28;20751;-55
2021/10/04 12:35:09;;;;;;;3.40;0.93;;;18.50;98.20;;;;;;5106720;28;20027;-57
2021/10/04 12:37:43;;;;;;;2.72;0.98;;;18.40;98.10;;;;;;5105193;28;20034;-57
2021/10/04 12:40:47;;;;;;;4.03;0.70;;;18.40;98.10;;;;;;5108686;28;20073;-54
2021/10/04 12:43:22;;;;;;;1.25;0.60;;;18.50;98.20;;;;;;5105011;28;20081;-57
2021/10/04 12:46:10;;;;;;;5.03;0.60;;;18.60;98.20;;;;;;5106885;28;20066;-58
2021/10/04 12:48:41;;;;;;;2.13;0.43;;;18.50;96.50;;;;;;5107571;28;20020;-57
2021/10/04 12:51:11;;;;;;;3.65;0.60;;;18.70;96.60;;;;;;5106877;28;20024;-58
2021/10/04 12:53:55;;;;;;;2.92;0.80;;;18.80;96.20;;;;;;5098960;28;20100;-58
2021/10/04 12:56:24;;;;;;;4.47;1.30;;;19.00;96.30;;;;;;5104384;28;20024;-58
2021/10/04 12:59:04;;;;;;;4.47;0.68;;;19.10;95.30;;;;;;5100603;28;20031;-57
2021/10/04 13:01:31;;;;;;;1.42;0.60;;;18.90;94.30;;;;;;5103677;27;20027;-58
2021/10/04 13:04:04;;;;;;;2.45;0.75;;;18.70;94.90;;;;;;5107624;28;20020;-57
2021/10/04 13:06:32;;;;;;;6.43;1.05;;;18.60;95.40;;;;;;5104625;28;20099;-57
2021/10/04 13:08:59;;;;;;;6.13;0.68;;;18.60;95.50;;;;;;5105467;27;20023;-56
2021/10/04 13:11:26;;;;;;;1.15;0.40;;;18.60;94.80;;;;;;5104643;28;20120;-54